createdAt,value
2022-09-15T00:00:00.140Z,65.47
2022-09-15T00:02:29.982Z,65.34
2022-09-15T00:04:59.847Z,65.82
2022-09-15T00:07:31.379Z,66.07
2022-09-15T00:10:01.573Z,66.46
2022-09-15T00:12:31.531Z,66.43
2022-09-15T00:15:01.570Z,66.19
2022-09-15T00:17:31.621Z,65.78
2022-09-15T00:20:01.554Z,65.49
2022-09-15T00:22:32.748Z,66.25
2022-09-15T00:25:02.609Z,66.80
2022-09-15T00:27:50.517Z,67.05
2022-09-15T00:30:20.419Z,67.05
2022-09-15T00:32:50.174Z,67.43
2022-09-15T00:35:20.060Z,67.46
2022-09-15T00:37:51.203Z,66.99
2022-09-15T00:40:21.152Z,66.95
2022-09-15T00:42:51.052Z,66.90
2022-09-15T00:45:21.121Z,66.56
2022-09-15T00:47:51.105Z,65.95
2022-09-15T00:50:22.097Z,65.79
2022-09-15T00:52:58.118Z,65.59
2022-09-15T00:55:32.487Z,64.98
2022-09-15T00:58:06.606Z,65.30
2022-09-15T01:00:36.833Z,65.78
2022-09-15T01:03:06.673Z,65.96
2022-09-15T01:05:40.649Z,65.99
2022-09-15T01:08:20.319Z,66.64
2022-09-15T01:10:52.115Z,66.33
2022-09-15T01:13:21.923Z,66.22
2022-09-15T01:16:01.658Z,65.65
2022-09-15T01:18:42.657Z,65.63
2022-09-15T01:21:25.584Z,65.99
2022-09-15T01:24:30.581Z,66.49
2022-09-15T01:27:41.760Z,66.09
2022-09-15T01:30:20.618Z,66.66
2022-09-15T01:33:04.893Z,67.10
2022-09-15T01:35:54.345Z,66.66
2022-09-15T01:38:34.195Z,66.19
2022-09-15T01:41:09.397Z,65.99
2022-09-15T01:43:45.361Z,65.83
2022-09-15T01:46:18.537Z,66.11
2022-09-15T01:48:50.504Z,66.29
2022-09-15T01:51:21.025Z,66.02
2022-09-15T01:53:53.718Z,65.99
2022-09-15T01:56:24.382Z,66.50
2022-09-15T01:58:54.231Z,65.92
2022-09-15T02:01:32.171Z,65.71
2022-09-15T02:04:10.191Z,66.57
2022-09-15T02:06:44.893Z,66.28
2022-09-15T02:09:20.267Z,66.08
2022-09-15T02:12:00.067Z,66.07
2022-09-15T02:14:39.900Z,66.36
2022-09-15T02:17:15.217Z,66.09
2022-09-15T02:19:51.122Z,65.96
2022-09-15T02:22:26.248Z,65.84
2022-09-15T02:25:02.246Z,66.14
2022-09-15T02:27:39.015Z,65.63
2022-09-15T02:30:12.859Z,65.98
2022-09-15T02:32:54.197Z,66.00
2022-09-15T02:35:25.688Z,65.91
2022-09-15T02:37:57.492Z,65.53
2022-09-15T02:40:30.130Z,65.29
2022-09-15T02:43:02.195Z,65.07
2022-09-15T02:45:33.261Z,65.17
2022-09-15T02:48:05.403Z,65.13
2022-09-15T02:50:35.533Z,64.35
2022-09-15T02:53:05.692Z,64.53
2022-09-15T02:55:35.468Z,64.27
2022-09-15T02:58:05.604Z,64.23
2022-09-15T03:00:38.593Z,64.36
2022-09-15T03:03:10.131Z,63.91
2022-09-15T03:05:40.025Z,63.77
2022-09-15T03:08:11.171Z,63.77
2022-09-15T03:10:41.012Z,63.80
2022-09-15T03:13:10.829Z,64.14
2022-09-15T03:15:41.002Z,64.05
2022-09-15T03:18:13.216Z,63.58
2022-09-15T03:20:43.113Z,63.30
2022-09-15T03:23:12.933Z,63.41
2022-09-15T03:25:42.653Z,64.07
2022-09-15T03:28:12.553Z,63.96
2022-09-15T03:30:42.818Z,64.21
2022-09-15T03:33:13.934Z,64.06
2022-09-15T03:35:43.757Z,64.57
2022-09-15T03:38:13.679Z,64.21
2022-09-15T03:40:44.087Z,64.33
2022-09-15T03:43:18.562Z,64.28
2022-09-15T03:45:48.975Z,64.14
2022-09-15T03:48:20.126Z,63.74
2022-09-15T03:50:50.143Z,64.03
2022-09-15T03:53:20.301Z,64.00
2022-09-15T03:55:50.292Z,64.23
2022-09-15T03:58:20.636Z,63.96
2022-09-15T04:00:50.439Z,63.19
2022-09-15T04:03:21.849Z,63.78
2022-09-15T04:05:51.626Z,63.61
2022-09-15T04:08:21.388Z,63.92
2022-09-15T04:10:51.276Z,64.28
2022-09-15T04:13:22.642Z,64.08
2022-09-15T04:16:06.526Z,64.02
2022-09-15T04:18:38.078Z,63.69
2022-09-15T04:21:10.081Z,63.84
2022-09-15T04:23:39.999Z,63.77
2022-09-15T04:26:12.918Z,64.21
2022-09-15T04:28:42.709Z,63.80
2022-09-15T04:31:14.671Z,63.31
2022-09-15T04:33:46.629Z,62.57
2022-09-15T04:36:19.162Z,62.83
2022-09-15T04:38:50.596Z,62.94
2022-09-15T04:41:20.917Z,63.28
2022-09-15T04:43:51.127Z,63.56
2022-09-15T04:46:21.763Z,63.73
2022-09-15T04:48:54.022Z,63.83
2022-09-15T04:51:24.332Z,63.55
2022-09-15T04:53:54.267Z,63.23
2022-09-15T04:56:25.738Z,63.11
2022-09-15T04:59:03.275Z,63.19
2022-09-15T05:01:36.236Z,62.96
2022-09-15T05:04:07.548Z,62.66
2022-09-15T05:06:38.335Z,62.83
2022-09-15T05:09:10.625Z,62.40
2022-09-15T05:11:41.013Z,61.73
2022-09-15T05:14:11.584Z,62.14
2022-09-15T05:16:41.463Z,62.22
2022-09-15T05:19:14.639Z,62.69
2022-09-15T05:21:44.905Z,62.45
2022-09-15T05:24:14.911Z,62.54
2022-09-15T05:26:44.738Z,62.55
2022-09-15T05:29:14.864Z,62.06
2022-09-15T05:31:44.965Z,61.83
2022-09-15T05:34:16.524Z,61.58
2022-09-15T05:36:46.273Z,61.39
2022-09-15T05:39:16.385Z,60.91
2022-09-15T05:41:46.318Z,60.65
2022-09-15T05:44:16.345Z,60.59
2022-09-15T05:46:46.229Z,60.66
2022-09-15T05:49:17.720Z,60.43
2022-09-15T05:51:47.739Z,60.30
2022-09-15T05:54:17.567Z,59.93
2022-09-15T05:56:47.784Z,60.29
2022-09-15T05:59:17.694Z,60.04
2022-09-15T06:01:47.536Z,59.60
2022-09-15T06:04:19.048Z,59.37
2022-09-15T06:06:48.732Z,59.40
2022-09-15T06:09:18.675Z,59.91
2022-09-15T06:11:48.613Z,59.63
2022-09-15T06:14:18.389Z,59.61
2022-09-15T06:16:48.239Z,59.23
2022-09-15T06:19:19.688Z,58.55
2022-09-15T06:21:49.822Z,58.48
2022-09-15T06:24:19.796Z,57.27
2022-09-15T06:26:49.581Z,57.04
2022-09-15T06:29:19.721Z,56.28
2022-09-15T06:31:49.660Z,55.30
2022-09-15T06:34:20.948Z,55.58
2022-09-15T06:36:50.753Z,54.62
2022-09-15T06:39:20.621Z,54.57
2022-09-15T06:42:02.363Z,55.20
2022-09-15T06:44:33.448Z,54.15
2022-09-15T06:47:03.706Z,53.50
2022-09-15T06:49:35.155Z,53.41
2022-09-15T06:52:05.252Z,52.96
2022-09-15T06:54:35.584Z,53.15
2022-09-15T06:57:05.880Z,52.93
2022-09-15T06:59:35.827Z,53.00
2022-09-15T07:02:05.853Z,52.83
2022-09-15T07:04:38.727Z,52.08
2022-09-15T07:07:08.600Z,52.11
2022-09-15T07:09:41.261Z,50.30
2022-09-15T07:12:11.118Z,49.53
2022-09-15T07:14:40.833Z,49.02
2022-09-15T07:17:10.679Z,49.58
2022-09-15T07:19:43.192Z,48.38
2022-09-15T07:22:13.374Z,48.46
2022-09-15T07:24:43.162Z,47.57
2022-09-15T07:27:12.960Z,47.67
2022-09-15T07:29:43.052Z,48.00
2022-09-15T07:32:12.803Z,48.41
2022-09-15T07:34:44.082Z,48.47
2022-09-15T07:37:16.289Z,48.88
2022-09-15T07:39:48.093Z,47.71
2022-09-15T07:42:18.053Z,48.13
2022-09-15T07:44:47.810Z,47.70
2022-09-15T07:47:17.654Z,46.69
2022-09-15T07:49:50.428Z,46.75
2022-09-15T07:52:20.389Z,45.81
2022-09-15T07:54:50.246Z,45.24
2022-09-15T07:57:20.087Z,45.09
2022-09-15T07:59:49.962Z,45.17
2022-09-15T08:02:21.527Z,44.43
2022-09-15T08:04:53.132Z,44.95
2022-09-15T08:07:22.977Z,45.70
2022-09-15T08:09:53.151Z,44.96
2022-09-15T08:12:33.055Z,43.61
2022-09-15T08:15:09.653Z,43.25
2022-09-15T08:17:39.719Z,42.49
2022-09-15T08:20:12.377Z,41.67
2022-09-15T08:22:42.649Z,41.52
2022-09-15T08:25:13.117Z,41.03
2022-09-15T08:27:42.904Z,41.22
2022-09-15T08:30:14.012Z,40.75
2022-09-15T08:32:44.064Z,40.54
2022-09-15T08:35:16.040Z,40.92
2022-09-15T08:37:46.229Z,39.49
2022-09-15T08:40:18.912Z,38.77
2022-09-15T08:42:51.032Z,38.81
2022-09-15T08:45:26.605Z,38.83
2022-09-15T08:48:00.327Z,38.75
2022-09-15T08:50:38.847Z,38.43
2022-09-15T08:53:13.198Z,38.75
2022-09-15T08:55:48.967Z,38.47
2022-09-15T08:58:20.926Z,38.88
2022-09-15T09:00:55.924Z,38.37
2022-09-15T09:03:50.237Z,38.77
2022-09-15T09:06:26.298Z,38.08
2022-09-15T09:09:09.836Z,38.16
2022-09-15T09:12:06.545Z,38.14
2022-09-15T09:14:48.143Z,37.38
2022-09-15T09:17:32.424Z,37.23
2022-09-15T09:20:23.282Z,36.50
2022-09-15T09:22:55.819Z,36.46
2022-09-15T09:25:27.957Z,36.06
2022-09-15T09:27:59.456Z,35.34
2022-09-15T09:30:33.425Z,36.52
2022-09-15T09:33:26.505Z,36.84
2022-09-15T09:35:59.419Z,34.88
2022-09-15T09:38:33.684Z,35.81
2022-09-15T09:41:06.697Z,36.18
2022-09-15T09:43:37.903Z,34.25
2022-09-15T09:46:15.292Z,34.61
2022-09-15T09:48:49.250Z,34.36
2022-09-15T09:51:33.614Z,34.65
2022-09-15T09:54:16.461Z,34.37
2022-09-15T09:56:46.578Z,34.30
2022-09-15T09:59:35.553Z,34.15
2022-09-15T10:02:16.830Z,33.66
2022-09-15T10:04:48.600Z,33.52
2022-09-15T10:07:20.360Z,33.25
2022-09-15T10:09:54.609Z,33.90
2022-09-15T10:12:32.327Z,33.80
2022-09-15T10:15:05.318Z,32.96
2022-09-15T10:17:43.897Z,33.44
2022-09-15T10:20:28.371Z,33.41
2022-09-15T10:23:05.040Z,33.15
2022-09-15T10:28:29.439Z,32.45
2022-09-15T10:31:05.036Z,32.17
2022-09-15T10:33:36.340Z,32.24
2022-09-15T10:36:08.868Z,32.72
2022-09-15T10:38:43.261Z,31.92
2022-09-15T10:41:37.714Z,31.95
2022-09-15T10:44:35.304Z,31.67
2022-09-15T10:47:18.839Z,31.99
2022-09-15T10:50:01.855Z,32.21
2022-09-15T10:52:43.563Z,32.01
2022-09-15T10:55:52.827Z,31.96
2022-09-15T10:58:36.846Z,32.45
2022-09-15T11:01:33.374Z,32.61
2022-09-15T11:04:38.641Z,33.02
2022-09-15T11:07:15.868Z,33.40
2022-09-15T11:09:51.587Z,33.47
2022-09-15T11:12:37.711Z,33.20
2022-09-15T11:15:22.767Z,34.13
2022-09-15T11:18:12.439Z,32.50
2022-09-15T11:21:02.835Z,35.06
2022-09-15T11:23:36.229Z,32.73
2022-09-15T11:26:11.014Z,34.22
2022-09-15T11:28:45.067Z,33.99
2022-09-15T11:31:22.850Z,32.84
2022-09-15T11:33:58.218Z,34.02
2022-09-15T11:36:33.819Z,34.33
2022-09-15T11:39:12.705Z,32.16
2022-09-15T11:41:49.727Z,32.64
2022-09-15T11:44:26.399Z,31.43
2022-09-15T11:47:17.005Z,31.71
2022-09-15T11:49:51.630Z,33.40
2022-09-15T11:52:47.369Z,35.93
2022-09-15T11:55:26.112Z,33.50
2022-09-15T11:58:04.434Z,31.94
2022-09-15T12:00:39.906Z,31.97
2022-09-15T12:03:19.513Z,32.36
2022-09-15T12:05:53.178Z,32.60
2022-09-15T12:08:32.126Z,32.41
2022-09-15T12:11:07.101Z,33.11
2022-09-15T12:13:38.047Z,33.38
2022-09-15T12:16:09.971Z,32.22
2022-09-15T12:18:47.271Z,31.80
2022-09-15T12:21:23.840Z,31.82
2022-09-15T12:24:01.212Z,31.20
2022-09-15T12:26:34.294Z,32.18
2022-09-15T12:29:05.279Z,32.42
2022-09-15T12:31:38.112Z,32.98
2022-09-15T12:34:36.260Z,33.60
2022-09-15T12:37:12.580Z,32.86
2022-09-15T12:39:43.660Z,31.73
2022-09-15T12:42:20.413Z,31.68
2022-09-15T12:44:56.231Z,31.29
2022-09-15T12:47:31.837Z,32.69
2022-09-15T12:50:21.157Z,32.67
2022-09-15T12:52:53.619Z,33.51
2022-09-15T12:55:26.872Z,33.40
2022-09-15T12:58:00.183Z,33.91
2022-09-15T13:00:45.592Z,33.71
2022-09-15T13:03:30.846Z,34.18
2022-09-15T13:06:21.821Z,34.69
2022-09-15T13:08:54.511Z,34.92
2022-09-15T13:11:38.743Z,34.87
2022-09-15T13:14:16.350Z,34.61
2022-09-15T13:16:53.848Z,34.87
2022-09-15T13:19:31.181Z,35.41
2022-09-15T13:22:07.654Z,34.95
2022-09-15T13:24:47.744Z,35.37
2022-09-15T13:27:22.105Z,35.11
2022-09-15T13:29:59.130Z,34.40
2022-09-15T13:32:41.095Z,34.88
2022-09-15T13:35:37.199Z,34.63
2022-09-15T13:38:52.416Z,35.21
2022-09-15T13:41:44.381Z,34.76
2022-09-15T13:44:55.737Z,35.84
2022-09-15T13:47:35.146Z,35.46
2022-09-15T13:50:14.840Z,35.51
2022-09-15T13:53:07.546Z,35.82
2022-09-15T13:55:42.529Z,35.64
2022-09-15T14:01:07.809Z,35.82
2022-09-15T14:03:43.721Z,35.56
2022-09-15T14:06:17.863Z,35.34
2022-09-15T14:08:51.748Z,35.87
2022-09-15T14:11:31.313Z,36.38
2022-09-15T14:14:01.636Z,37.07
2022-09-15T14:16:35.219Z,36.82
2022-09-15T14:19:31.159Z,37.16
2022-09-15T14:22:01.685Z,37.50
2022-09-15T14:24:33.020Z,37.62
2022-09-15T14:27:11.868Z,37.89
2022-09-15T14:29:42.802Z,38.31
2022-09-15T14:32:15.660Z,38.16
2022-09-15T14:37:27.578Z,38.59
2022-09-15T14:39:59.717Z,38.48
2022-09-15T14:42:36.079Z,39.04
2022-09-15T14:48:16.949Z,38.66
2022-09-15T14:50:55.420Z,39.25
2022-09-15T14:53:27.927Z,39.63
2022-09-15T14:56:07.794Z,39.21
2022-09-15T14:58:44.514Z,39.74
2022-09-15T15:01:17.998Z,39.79
2022-09-15T15:03:51.037Z,39.25
2022-09-15T15:06:28.846Z,39.68
2022-09-15T15:09:04.700Z,39.76
2022-09-15T15:11:37.532Z,39.40
2022-09-15T15:14:11.441Z,39.54
2022-09-15T15:16:52.377Z,39.06
2022-09-15T15:19:33.181Z,39.21
2022-09-15T15:22:17.163Z,39.47
2022-09-15T15:24:50.361Z,39.70
2022-09-15T15:27:40.961Z,40.11
2022-09-15T15:30:34.714Z,40.03
2022-09-15T15:33:06.671Z,39.93
2022-09-15T15:35:37.071Z,40.08
2022-09-15T15:38:15.201Z,40.47
2022-09-15T15:40:46.875Z,40.67
2022-09-15T15:43:24.422Z,40.93
2022-09-15T15:46:00.833Z,40.94
2022-09-15T15:48:36.890Z,41.50
2022-09-15T15:51:09.393Z,41.57
2022-09-15T15:53:40.110Z,41.90
2022-09-15T15:56:09.869Z,42.25
2022-09-15T15:58:39.856Z,42.02
2022-09-15T16:01:12.955Z,41.97
2022-09-15T16:03:42.797Z,42.64
2022-09-15T16:06:13.319Z,42.41
2022-09-15T16:08:45.342Z,43.12
2022-09-15T16:11:17.008Z,43.34
2022-09-15T16:13:48.319Z,43.08
2022-09-15T16:16:22.073Z,43.62
2022-09-15T16:18:52.070Z,43.81
2022-09-15T16:21:26.952Z,43.47
2022-09-15T16:23:56.743Z,43.53
2022-09-15T16:26:26.669Z,44.14
2022-09-15T16:28:58.347Z,44.29
2022-09-15T16:31:29.982Z,44.20
2022-09-15T16:34:00.751Z,44.56
2022-09-15T16:36:32.073Z,44.73
2022-09-15T16:39:01.873Z,45.41
2022-09-15T16:41:33.884Z,45.45
2022-09-15T16:44:15.408Z,45.67
2022-09-15T16:46:47.121Z,46.09
2022-09-15T16:49:16.907Z,45.73
2022-09-15T16:51:46.658Z,45.75
2022-09-15T16:54:18.091Z,46.17
2022-09-15T16:56:48.571Z,46.26
2022-09-15T16:59:18.363Z,46.72
2022-09-15T17:01:49.481Z,47.05
2022-09-15T17:04:20.096Z,47.18
2022-09-15T17:06:50.070Z,47.11
2022-09-15T17:09:19.792Z,47.40
2022-09-15T17:11:49.893Z,47.67
2022-09-15T17:14:19.811Z,48.29
2022-09-15T17:16:52.943Z,48.36
2022-09-15T17:19:22.719Z,48.35
2022-09-15T17:21:53.416Z,48.93
2022-09-15T17:24:23.316Z,49.20
2022-09-15T17:26:53.337Z,49.17
2022-09-15T17:29:24.756Z,49.26
2022-09-15T17:31:55.832Z,49.79
2022-09-15T17:34:26.025Z,49.77
2022-09-15T17:36:56.021Z,50.13
2022-09-15T17:39:26.050Z,50.54
2022-09-15T17:41:55.894Z,50.47
2022-09-15T17:44:25.883Z,50.63
2022-09-15T17:46:57.369Z,50.84
2022-09-15T17:49:27.473Z,50.94
2022-09-15T17:51:57.260Z,51.10
2022-09-15T17:54:27.188Z,51.78
2022-09-15T17:56:57.051Z,51.56
2022-09-15T17:59:26.776Z,52.10
2022-09-15T18:01:58.042Z,51.96
2022-09-15T18:04:27.906Z,52.20
2022-09-15T18:06:57.648Z,52.63
2022-09-15T18:09:27.448Z,52.85
2022-09-15T18:11:57.453Z,53.04
2022-09-15T18:14:27.194Z,53.35
2022-09-15T18:16:58.359Z,53.13
2022-09-15T18:19:28.204Z,53.72
2022-09-15T18:21:58.111Z,53.96
2022-09-15T18:24:28.459Z,54.42
2022-09-15T18:26:58.380Z,54.38
2022-09-15T18:29:28.291Z,54.14
2022-09-15T18:32:03.014Z,54.56
2022-09-15T18:34:33.017Z,54.78
2022-09-15T18:37:03.304Z,54.92
2022-09-15T18:39:33.120Z,55.30
2022-09-15T18:42:03.018Z,55.22
2022-09-15T18:44:33.058Z,55.40
2022-09-15T18:47:04.323Z,55.34
2022-09-15T18:49:34.218Z,55.92
2022-09-15T18:52:05.206Z,55.76
2022-09-15T18:54:37.354Z,55.78
2022-09-15T18:57:07.248Z,55.81
2022-09-15T18:59:37.351Z,55.82
2022-09-15T19:02:08.800Z,56.13
2022-09-15T19:04:40.761Z,55.84
2022-09-15T19:07:11.378Z,56.20
2022-09-15T19:09:41.296Z,56.37
2022-09-15T19:12:11.251Z,56.82
2022-09-15T19:14:46.000Z,57.04
2022-09-15T19:17:18.209Z,56.94
2022-09-15T19:19:48.827Z,57.09
2022-09-15T19:22:18.769Z,56.93
2022-09-15T19:24:48.784Z,57.11
2022-09-15T19:27:19.003Z,56.98
2022-09-15T19:29:49.625Z,57.15
2022-09-15T19:32:21.229Z,57.45
2022-09-15T19:34:51.042Z,57.38
2022-09-15T19:37:23.023Z,57.32
2022-09-15T19:39:52.886Z,57.57
2022-09-15T19:42:23.755Z,57.23
2022-09-15T19:44:54.310Z,57.92
2022-09-15T19:47:26.124Z,57.80
2022-09-15T19:49:55.920Z,57.96
2022-09-15T19:52:26.282Z,58.02
2022-09-15T19:54:56.123Z,57.98
2022-09-15T19:57:26.975Z,58.23
2022-09-15T19:59:56.851Z,58.15
2022-09-15T20:02:28.100Z,58.50
2022-09-15T20:04:58.901Z,58.46
2022-09-15T20:07:28.990Z,58.58
2022-09-15T20:09:58.877Z,58.52
2022-09-15T20:12:28.646Z,58.33
2022-09-15T20:14:59.244Z,58.40
2022-09-15T20:17:30.471Z,58.40
2022-09-15T20:20:00.994Z,57.91
2022-09-15T20:22:31.118Z,58.37
2022-09-15T20:25:01.117Z,58.46
2022-09-15T20:27:31.120Z,58.44
2022-09-15T20:30:01.089Z,59.02
2022-09-15T20:32:34.039Z,59.09
2022-09-15T20:35:04.392Z,59.22
2022-09-15T20:37:37.475Z,59.14
2022-09-15T20:40:09.485Z,59.52
2022-09-15T20:42:39.499Z,59.29
2022-09-15T20:45:10.449Z,59.35
2022-09-15T20:47:41.658Z,59.33
2022-09-15T20:50:11.910Z,59.07
2022-09-15T20:52:41.974Z,59.03
2022-09-15T20:55:11.751Z,59.10
2022-09-15T20:57:41.598Z,59.13
2022-09-15T21:00:12.556Z,58.97
2022-09-15T21:02:43.733Z,59.48
2022-09-15T21:05:13.407Z,59.48
2022-09-15T21:07:43.456Z,59.34
2022-09-15T21:10:13.621Z,59.05
2022-09-15T21:12:43.611Z,59.09
2022-09-15T21:15:13.367Z,59.46
2022-09-15T21:17:44.554Z,59.72
2022-09-15T21:20:14.901Z,59.59
2022-09-15T21:22:44.752Z,59.54
2022-09-15T21:25:14.650Z,59.96
2022-09-15T21:27:46.233Z,60.28
2022-09-15T21:30:16.936Z,60.09
2022-09-15T21:32:48.179Z,59.96
2022-09-15T21:35:19.043Z,59.88
2022-09-15T21:37:48.785Z,60.12
2022-09-15T21:40:18.665Z,60.05
2022-09-15T21:42:48.447Z,60.13
2022-09-15T21:45:18.198Z,60.12
2022-09-15T21:47:49.739Z,59.63
2022-09-15T21:50:19.560Z,59.49
2022-09-15T21:52:49.231Z,59.13
2022-09-15T21:55:18.953Z,59.18
2022-09-15T21:57:48.928Z,59.31
2022-09-15T22:00:19.088Z,59.52
2022-09-15T22:02:53.362Z,59.08
2022-09-15T22:05:23.447Z,59.23
2022-09-15T22:07:53.187Z,58.72
2022-09-15T22:10:23.494Z,58.58
2022-09-15T22:12:53.535Z,58.35
2022-09-15T22:15:23.931Z,58.48
2022-09-15T22:17:55.055Z,58.26
2022-09-15T22:20:25.714Z,57.94
2022-09-15T22:22:56.119Z,58.10
2022-09-15T22:25:26.475Z,57.76
2022-09-15T22:27:56.214Z,57.69
2022-09-15T22:30:26.119Z,57.53
2022-09-15T22:32:57.329Z,57.84
2022-09-15T22:35:27.470Z,57.70
2022-09-15T22:37:58.103Z,57.98
2022-09-15T22:40:28.623Z,58.02
2022-09-15T22:42:59.431Z,57.91
2022-09-15T22:45:29.237Z,57.60
2022-09-15T22:48:00.418Z,57.74
2022-09-15T22:50:30.295Z,57.20
2022-09-15T22:53:02.559Z,56.92
2022-09-15T22:55:33.614Z,56.91
2022-09-15T22:58:03.397Z,57.21
2022-09-15T23:00:33.705Z,57.31
2022-09-15T23:03:05.017Z,57.32
2022-09-15T23:05:35.875Z,57.20
2022-09-15T23:08:05.601Z,57.35
2022-09-15T23:10:35.378Z,57.35
2022-09-15T23:13:05.398Z,56.91
2022-09-15T23:15:35.782Z,57.08
2022-09-15T23:18:07.074Z,56.71
2022-09-15T23:20:39.477Z,56.65
2022-09-15T23:23:10.577Z,56.45
2022-09-15T23:25:40.708Z,56.82
2022-09-15T23:28:10.489Z,56.71
2022-09-15T23:30:40.406Z,56.82
2022-09-15T23:33:11.586Z,57.03
2022-09-15T23:35:41.343Z,56.73
2022-09-15T23:38:11.165Z,56.79
2022-09-15T23:40:42.757Z,56.67
2022-09-15T23:43:13.857Z,56.72
2022-09-15T23:45:44.405Z,57.12
2022-09-15T23:48:15.891Z,57.08
2022-09-15T23:50:46.122Z,57.22
2022-09-15T23:53:15.847Z,56.92
2022-09-15T23:55:45.584Z,56.68
2022-09-15T23:58:15.490Z,56.78
